Port Sulphur, Louisiana
Current Conditions -  °F | °C
As of 2:15 PM on Tuesday 21 Oct 2014 (Local Time) from K1B7 Reporting Station
Clear Clear  
Wind Chill: 75°   Ceiling: Unl
Heat Index: 75°   Visibility: 10mi
Dew Point: 63°   Wind: 15mph
Humidity: 65%   Direction: 60°ENE
Pressure: 29.99"   Gusts: NA
Location:  29.49°N, 89.71°W
Report Text: K1B7 211915Z 06013KT 10SM SKC 24/17 A2999
Loading
Personal Weather Stations






























Interactive Weather Map New forecast layout! Learn more

10-Day Weather Forecast

Advertisements
Track Severe Weather on mobile